Thursday, August 21, 2014
22:04 UTC
  |  Log In   |  Register Free
Airport Search:

Hobart Regional Airport
(KHBR)

Hobart Regional Airport Diagram
No Airport Diagram Available

FAA data valid effective July 24, 2014 until September 18, 2014 (unless otherwise noted).

 
 
 
 
 
 
 
 
 
 
 
 
 
 

Current Aviation Weather for Hobart Regional Airport (KHBR)

The most recent METAR observation for KHBR was updated at: 1753 UTC
METAR Summary (Translated METAR)
KHBR
281753Z AUTO 36008KT 10SM FEW075 OVC100 22/19 A3032 RMK AO2 RAB1655E07 SLP251 6//// T02220189 10222 20189 50010 PNO $
KLTS
(23.1 nm SW from KHBR)
281758Z 04009KT 6SM RA BR OVC085 21/21 A3030 RMK AO2A LTG DSNT S DZB1715E1718 SLP248 P0004 60031 T02120212 10235 20204 50012 $
TAF Summary (Translated TAF)
KHBR
211721Z 2118/2218 21019G26KT P6SM SKC FM220100 17015KT P6SM SKC
KLTS
(23.1 nm SW from KHBR)
2117/2221 19018G25KT 9999 SKC 510003 QNH2990INS BECMG 2200/2201 18012KT 9999 SKC QNH2987INS BECMG 2205/2206 20009KT 9999 SKC WS010/19035KT QNH2993INS BECMG 2214/2215 19018G25KT 9999 SKC QNH2991INS TX39/2121Z TN22/2212Z
  Airport Weather Conditions for KHBR

 Current Weather at HBR
100° F
Fair and Breezy
South winds at 20.7 mph
HBR NOAA Radar

Pressure: 29.90 in
Humidity: 30%
Wind: from the South at 20.7 gusting to 31.1 MPH (18 gusting to 27 KT)
Dew Point: 63.0°F
Visibility: 10.00 mi


Airport Weather Forecast for KHBR

Translated METAR and TAF for KHBR
Translated METAR for KHBR (2158 UTC 21 August 2014)
found at http://aviationweather.gov/adds/metars/
 
METAR text: KHBR 212153Z AUTO 21018KT 10SM CLR 38/16 A2989 RMK AO2 PK WND 22030/2111 SLP097 T03830156
Conditions at: KHBR (HOBART , OK, US) observed 2153 UTC 21 August 2014
Temperature: 38.3°C (101°F)
Dewpoint: 15.6°C (60°F) [RH = 26%]
Pressure (altimeter): 29.89 inches Hg (1012.3 mb)
[Sea-level pressure: 1009.7 mb]
Winds: from the SSW (210 degrees) at 21 MPH (18 knots; 9.4 m/s)
Visibility: 10 or more miles (16+ km)
Ceiling: at least 12,000 feet AGL
Clouds: sky clear below 12,000 feet AGL
Weather: automated observation with no human augmentation;
there may or may not be significant weather present at this time
Translated TAF for KHBR
Forecast for: KHBR (HOBART , OK, US)
TAF Text: KHBR 211721Z 2118/2218 21019G26KT P6SM SKC
Forecast period: 1800 UTC 21 August 2014 to 0100 UTC 22 August 2014
Forecast type: FROM: standard forecast or significant change
Winds: from the SSW (210 degrees) at 22 MPH (19 knots; 9.9 m/s)
gusting to 30 MPH (26 knots; 13.5 m/s)
Visibility: 6 or more miles (10+ km)
Clouds: clear skies
Weather: no significant weather forecast for this period
TAF Text: FM220100 17015KT P6SM SKC
Forecast period: 0100 to 1800 UTC 22 August 2014
Forecast type: FROM: standard forecast or significant change
Winds: from the S (170 degrees) at 17 MPH (15 knots; 7.8 m/s)
Visibility: 6 or more miles (10+ km)
Clouds: clear skies
Weather: no significant weather forecast for this period

Find All Airport Services Find A Hotel Find A Rental Car Find A Golf Course Find A Restaurant $100 Hamburger



FBO's on the Field
FBO Company Facility Photos Services Transportation Aviation Fuel Prices: Prices include tax
Catering Weather Repair Courtesy Rental Type 100LL JetA JetA+ MOGAS 8087
 
City of Hobart

Currently rated 2.8 by 1 person
FS:Phillips66
Last Updated: Jul-21
Login to update fuel prices
SS:
Contact City of HobartMore FBO Information
 
Add another FBO Facility Photos Catering Weather Repair Courtesy Rental Type 100LL JetA JetA+ MOGAS 8087
Services Transportation Aviation Fuel Prices: Prices include tax


GlobalAir.com Airport Resource Center model-print
model-print
model-print
model-print